Los Coyotes, Texas
Current Conditions -  °F | °C
As of 11:52 AM on Wednesday 26 Nov 2014 (Local Time) from KHRL Reporting Station
Clear Clear  
Wind Chill: 70°   Ceiling: Unl
Heat Index: 70°   Visibility: 10mi
Dew Point: 42°   Wind: 14mph
Humidity: 36%   Direction: 210°SSW
Pressure: 30.29"   Gusts: NA
Location:  26.4075°N, 97.7282°W
Report Text: KHRL 261752Z 21012KT 10SM CLR 21/06 A3029 RMK AO2 SLP257 T02110056 10211 20050 58010 $
Loading
Personal Weather Stations






























Interactive Weather Map New forecast layout! Learn more

10-Day Weather Forecast

Advertisements
Track Severe Weather on mobile